createdAt,value
2022-09-16T00:00:58.677Z,93.71
2022-09-16T00:03:40.494Z,94.16
2022-09-16T00:06:16.683Z,94.18
2022-09-16T00:08:45.647Z,94.36
2022-09-16T00:11:13.539Z,94.97
2022-09-16T00:13:41.401Z,94.56
2022-09-16T00:16:10.558Z,94.61
2022-09-16T00:18:38.674Z,94.52
2022-09-16T00:21:10.334Z,94.61
2022-09-16T00:23:38.585Z,94.52
2022-09-16T00:26:06.370Z,94.68
2022-09-16T00:28:34.274Z,94.72
2022-09-16T00:31:02.147Z,94.72
2022-09-16T00:33:33.053Z,94.77
2022-09-16T00:36:12.068Z,94.96
2022-09-16T00:38:40.473Z,95.21
2022-09-16T00:41:09.646Z,95.36
2022-09-16T00:43:50.992Z,95.59
2022-09-16T00:46:21.310Z,95.89
2022-09-16T00:48:49.661Z,96.04
2022-09-16T00:51:18.312Z,96.19
2022-09-16T00:53:50.093Z,96.47
2022-09-16T00:56:19.982Z,96.60
2022-09-16T00:58:51.535Z,96.77
2022-09-16T01:01:19.341Z,96.84
2022-09-16T01:03:52.490Z,97.01
2022-09-16T01:06:21.583Z,97.01
2022-09-16T01:08:50.168Z,97.06
2022-09-16T01:11:17.938Z,97.16
2022-09-16T01:13:46.726Z,97.21
2022-09-16T01:16:17.520Z,97.32
2022-09-16T01:19:00.372Z,97.37
2022-09-16T01:21:31.513Z,97.50
2022-09-16T01:24:18.223Z,97.52
2022-09-16T01:26:58.380Z,97.27
2022-09-16T01:29:44.922Z,97.29
2022-09-16T01:32:12.758Z,97.12
2022-09-16T01:34:56.186Z,96.84
2022-09-16T01:37:32.897Z,96.92
2022-09-16T01:40:10.294Z,96.93
2022-09-16T01:42:53.567Z,97.16
2022-09-16T01:45:28.451Z,97.09
2022-09-16T01:48:05.371Z,96.96
2022-09-16T01:50:34.877Z,97.07
2022-09-16T01:53:11.700Z,96.98
2022-09-16T01:55:54.659Z,96.56
2022-09-16T01:58:25.510Z,96.68
2022-09-16T02:00:56.347Z,96.97
2022-09-16T02:03:28.646Z,96.87
2022-09-16T02:05:59.556Z,96.77
2022-09-16T02:08:36.535Z,96.53
2022-09-16T02:11:06.039Z,96.53
2022-09-16T02:13:39.947Z,96.56
2022-09-16T02:16:14.355Z,96.52
2022-09-16T02:18:44.384Z,96.64
2022-09-16T02:21:14.914Z,96.71
2022-09-16T02:23:46.467Z,96.68
2022-09-16T02:26:16.380Z,96.57
2022-09-16T02:28:46.601Z,96.52
2022-09-16T02:31:15.788Z,96.52
2022-09-16T02:34:10.701Z,96.75
2022-09-16T02:36:40.919Z,96.77
2022-09-16T02:39:10.736Z,96.86
2022-09-16T02:41:39.419Z,96.93
2022-09-16T02:44:08.186Z,96.58
2022-09-16T02:46:35.923Z,96.37
2022-09-16T02:49:22.477Z,96.43
2022-09-16T02:52:08.887Z,96.64
2022-09-16T02:54:47.134Z,96.70
2022-09-16T02:57:15.591Z,96.73
2022-09-16T02:59:43.528Z,96.57
2022-09-16T03:02:11.315Z,96.82
2022-09-16T03:04:39.077Z,96.89
2022-09-16T03:07:08.412Z,97.01
2022-09-16T03:09:37.782Z,97.14
2022-09-16T03:12:24.261Z,97.24
2022-09-16T03:15:07.316Z,97.19
2022-09-16T03:17:38.050Z,97.29
2022-09-16T03:20:12.155Z,97.15
2022-09-16T03:22:48.186Z,96.97
2022-09-16T03:25:23.935Z,97.11
2022-09-16T03:27:54.012Z,97.09
2022-09-16T03:30:21.837Z,97.12
2022-09-16T03:32:54.318Z,97.33
2022-09-16T03:35:31.742Z,97.14
2022-09-16T03:38:01.396Z,96.91
2022-09-16T03:40:30.107Z,97.19
2022-09-16T03:42:58.483Z,96.81
2022-09-16T03:45:26.633Z,96.57
2022-09-16T03:47:54.408Z,96.80
2022-09-16T03:50:22.164Z,96.52
2022-09-16T03:52:50.336Z,96.52
2022-09-16T03:55:18.199Z,96.79
2022-09-16T03:57:45.969Z,96.84
2022-09-16T04:00:16.163Z,96.84
2022-09-16T04:02:43.923Z,97.06
2022-09-16T04:05:11.713Z,97.03
2022-09-16T04:07:39.477Z,97.06
2022-09-16T04:10:07.473Z,97.19
2022-09-16T04:12:35.220Z,96.94
2022-09-16T04:15:03.774Z,97.10
2022-09-16T04:17:32.319Z,97.12
2022-09-16T04:20:00.377Z,97.08
2022-09-16T04:22:29.532Z,97.04
2022-09-16T04:24:57.712Z,97.09
2022-09-16T04:27:25.578Z,97.09
2022-09-16T04:29:53.322Z,97.43
2022-09-16T04:32:21.618Z,97.13
2022-09-16T04:34:49.485Z,96.96
2022-09-16T04:37:17.313Z,97.19
2022-09-16T04:39:45.525Z,97.27
2022-09-16T04:42:13.283Z,97.02
2022-09-16T04:44:41.184Z,97.02
2022-09-16T04:47:09.022Z,97.38
2022-09-16T04:49:36.718Z,97.37
2022-09-16T04:52:04.525Z,97.24
2022-09-16T04:54:32.419Z,96.87
2022-09-16T04:57:01.476Z,96.53
2022-09-16T04:59:29.272Z,96.55
2022-09-16T05:01:57.687Z,96.82
2022-09-16T05:04:25.924Z,96.81
2022-09-16T05:06:53.762Z,96.65
2022-09-16T05:09:24.319Z,96.61
2022-09-16T05:11:52.459Z,96.81
2022-09-16T05:14:20.359Z,97.06
2022-09-16T05:16:48.437Z,97.26
2022-09-16T05:19:17.568Z,96.98
2022-09-16T05:21:45.700Z,96.46
2022-09-16T05:24:13.833Z,96.39
2022-09-16T05:26:42.336Z,96.24
2022-09-16T05:29:12.382Z,96.16
2022-09-16T05:31:41.460Z,95.57
2022-09-16T05:34:13.938Z,95.25
2022-09-16T05:36:43.882Z,94.96
2022-09-16T05:39:25.066Z,94.47
2022-09-16T05:41:56.699Z,94.13
2022-09-16T05:44:25.987Z,94.14
2022-09-16T05:46:54.069Z,93.86
2022-09-16T05:49:22.300Z,93.95
2022-09-16T05:51:50.607Z,93.56
2022-09-16T05:54:19.122Z,93.30
2022-09-16T05:56:47.650Z,92.92
2022-09-16T05:59:16.693Z,92.83
2022-09-16T06:01:45.447Z,92.43
2022-09-16T06:04:14.362Z,91.78
2022-09-16T06:06:43.639Z,91.51
2022-09-16T06:09:13.262Z,91.33
2022-09-16T06:11:42.139Z,91.44
2022-09-16T06:14:10.320Z,91.62
2022-09-16T06:16:38.193Z,91.89
2022-09-16T06:19:07.377Z,91.61
2022-09-16T06:21:35.242Z,91.50
2022-09-16T06:27:44.087Z,90.12
2022-09-16T06:30:12.645Z,89.81
2022-09-16T06:32:40.951Z,89.09
2022-09-16T06:35:10.063Z,89.08
2022-09-16T06:37:37.982Z,89.38
2022-09-16T06:40:08.008Z,89.98
2022-09-16T06:42:35.992Z,90.02
2022-09-16T06:45:05.951Z,89.14
2022-09-16T06:47:34.185Z,89.14
2022-09-16T06:50:04.610Z,89.20
2022-09-16T06:52:32.943Z,88.44
2022-09-16T06:55:01.325Z,88.11
2022-09-16T06:57:30.771Z,87.19
2022-09-16T06:59:58.826Z,86.72
2022-09-16T07:02:26.929Z,87.27
2022-09-16T07:04:55.395Z,87.42
2022-09-16T07:07:23.259Z,85.99
2022-09-16T07:09:51.843Z,85.06
2022-09-16T07:12:19.901Z,84.92
2022-09-16T07:14:48.197Z,84.86
2022-09-16T07:17:16.344Z,84.96
2022-09-16T07:19:44.783Z,85.27
2022-09-16T07:22:12.991Z,85.85
2022-09-16T07:24:40.983Z,85.93
2022-09-16T07:27:08.805Z,86.18
2022-09-16T07:29:36.821Z,86.19
2022-09-16T07:32:05.198Z,86.35
2022-09-16T07:34:33.160Z,85.83
2022-09-16T07:37:01.034Z,85.10
2022-09-16T07:39:29.081Z,84.54
2022-09-16T07:41:57.582Z,83.66
2022-09-16T07:44:26.116Z,83.28
2022-09-16T07:46:54.218Z,82.71
2022-09-16T07:49:22.215Z,82.66
2022-09-16T07:51:50.127Z,82.44
2022-09-16T07:54:20.041Z,82.01
2022-09-16T07:56:48.895Z,82.06
2022-09-16T07:59:19.585Z,81.53
2022-09-16T08:01:49.984Z,81.02
2022-09-16T08:04:19.385Z,80.71
2022-09-16T08:06:48.656Z,80.78
2022-09-16T08:12:05.780Z,79.25
2022-09-16T08:14:34.402Z,78.34
2022-09-16T08:17:04.040Z,78.13
2022-09-16T08:19:31.995Z,76.97
2022-09-16T08:21:59.811Z,76.89
2022-09-16T08:24:28.068Z,76.61
2022-09-16T08:29:29.892Z,72.68
2022-09-16T08:31:58.164Z,71.57
2022-09-16T08:34:26.124Z,72.20
2022-09-16T08:36:54.056Z,72.22
2022-09-16T08:39:22.132Z,70.72
2022-09-16T08:42:23.313Z,70.17
2022-09-16T08:44:58.747Z,71.12
2022-09-16T08:47:43.919Z,71.30
2022-09-16T08:50:34.478Z,70.69
2022-09-16T08:53:04.896Z,69.99
2022-09-16T08:55:40.099Z,69.06
2022-09-16T08:58:18.838Z,69.90
2022-09-16T09:00:54.489Z,70.57
2022-09-16T09:03:37.965Z,71.47
2022-09-16T09:06:33.427Z,72.13
2022-09-16T09:09:36.581Z,72.19
2022-09-16T09:12:15.685Z,69.78
2022-09-16T09:15:04.366Z,68.70
2022-09-16T09:17:56.031Z,69.17
2022-09-16T09:20:55.374Z,69.76
2022-09-16T09:23:38.567Z,70.25
2022-09-16T09:26:23.256Z,70.52
2022-09-16T09:29:15.495Z,69.44
2022-09-16T09:31:52.306Z,68.72
2022-09-16T09:34:26.385Z,68.54
2022-09-16T09:37:38.983Z,68.26
2022-09-16T09:40:13.697Z,68.88
2022-09-16T09:43:13.744Z,69.11
2022-09-16T09:46:12.423Z,67.68
2022-09-16T09:48:50.642Z,66.89
2022-09-16T09:51:30.032Z,67.24
2022-09-16T09:54:22.255Z,66.05
2022-09-16T09:56:55.409Z,65.16
2022-09-16T09:59:52.453Z,63.89
2022-09-16T10:02:22.775Z,62.03
2022-09-16T10:04:51.359Z,61.29
2022-09-16T10:07:23.531Z,61.55
2022-09-16T10:09:55.225Z,62.02
2022-09-16T10:12:30.919Z,63.80
2022-09-16T10:14:59.594Z,64.85
2022-09-16T10:17:31.302Z,65.42
2022-09-16T10:20:22.593Z,64.79
2022-09-16T10:23:24.369Z,63.85
2022-09-16T10:26:09.727Z,62.12
2022-09-16T10:28:38.550Z,62.16
2022-09-16T10:31:08.659Z,62.43
2022-09-16T10:33:45.523Z,62.80
2022-09-16T10:36:26.563Z,62.76
2022-09-16T10:39:03.832Z,63.32
2022-09-16T10:41:42.017Z,63.89
2022-09-16T10:44:25.533Z,64.03
2022-09-16T10:47:14.578Z,64.47
2022-09-16T10:49:49.336Z,64.64
2022-09-16T10:52:23.352Z,64.43
2022-09-16T10:54:52.140Z,64.36
2022-09-16T10:57:30.723Z,64.98
2022-09-16T11:00:14.446Z,65.61
2022-09-16T11:03:07.108Z,65.65
2022-09-16T11:05:53.748Z,65.74
2022-09-16T11:08:49.634Z,65.65
2022-09-16T11:11:39.237Z,64.92
2022-09-16T11:14:24.909Z,65.06
2022-09-16T11:16:52.808Z,65.61
2022-09-16T11:19:48.454Z,65.57
2022-09-16T11:22:44.883Z,65.94
2022-09-16T11:25:38.134Z,65.99
2022-09-16T11:28:27.239Z,65.91
2022-09-16T11:31:04.265Z,65.81
2022-09-16T11:33:50.642Z,65.91
2022-09-16T11:36:24.015Z,66.55
2022-09-16T11:39:13.383Z,66.83
2022-09-16T11:41:58.858Z,67.12
2022-09-16T11:44:49.231Z,65.72
2022-09-16T11:47:26.541Z,65.31
2022-09-16T11:50:03.280Z,64.60
2022-09-16T11:53:03.076Z,64.82
2022-09-16T11:55:45.632Z,64.40
2022-09-16T11:58:25.387Z,63.77
2022-09-16T12:00:57.674Z,63.93
2022-09-16T12:03:46.464Z,64.44
2022-09-16T12:06:19.372Z,64.26
2022-09-16T12:09:03.813Z,64.09
2022-09-16T12:11:43.603Z,63.73
2022-09-16T12:14:26.573Z,63.66
2022-09-16T12:17:25.929Z,63.60
2022-09-16T12:20:35.053Z,63.02
2022-09-16T12:23:14.707Z,63.64
2022-09-16T12:26:13.078Z,63.60
2022-09-16T12:28:58.513Z,63.56
2022-09-16T12:31:44.012Z,62.19
2022-09-16T12:34:16.910Z,60.30
2022-09-16T12:36:49.598Z,59.57
2022-09-16T12:39:17.326Z,59.45
2022-09-16T12:42:12.573Z,60.13
2022-09-16T12:45:11.772Z,60.07
2022-09-16T12:48:06.674Z,60.46
2022-09-16T12:50:47.236Z,60.41
2022-09-16T12:53:33.330Z,60.09
2022-09-16T12:56:29.659Z,59.94
2022-09-16T12:59:25.335Z,59.73
2022-09-16T13:02:00.059Z,59.34
2022-09-16T13:04:34.366Z,59.62
2022-09-16T13:07:02.696Z,60.41
2022-09-16T13:09:41.003Z,59.68
2022-09-16T13:12:40.955Z,59.28
2022-09-16T13:15:31.791Z,59.35
2022-09-16T13:18:14.701Z,59.26
2022-09-16T13:21:14.776Z,59.73
2022-09-16T13:23:47.463Z,60.89
2022-09-16T13:26:15.325Z,61.16
2022-09-16T13:28:46.451Z,61.61
2022-09-16T13:31:15.420Z,61.16
2022-09-16T13:33:49.938Z,60.44
2022-09-16T13:36:31.662Z,59.47
2022-09-16T13:39:06.005Z,58.81
2022-09-16T13:41:44.809Z,58.85
2022-09-16T13:44:40.429Z,59.18
2022-09-16T13:47:11.053Z,59.26
2022-09-16T13:49:51.828Z,59.83
2022-09-16T13:52:39.844Z,59.98
2022-09-16T13:55:25.529Z,60.50
2022-09-16T13:58:02.211Z,61.13
2022-09-16T14:00:46.970Z,60.98
2022-09-16T14:03:35.103Z,61.22
2022-09-16T14:06:18.388Z,60.77
2022-09-16T14:09:01.787Z,61.15
2022-09-16T14:12:04.551Z,62.16
2022-09-16T14:14:46.819Z,62.84
2022-09-16T14:17:27.687Z,63.86
2022-09-16T14:20:00.750Z,63.66
2022-09-16T14:22:30.205Z,62.46
2022-09-16T14:25:06.661Z,61.57
2022-09-16T14:27:46.173Z,61.60
2022-09-16T14:30:17.347Z,61.48
2022-09-16T14:32:48.080Z,61.21
2022-09-16T14:35:18.959Z,61.39
2022-09-16T14:37:48.948Z,61.42
2022-09-16T14:40:21.814Z,62.10
2022-09-16T14:42:54.349Z,62.45
2022-09-16T14:45:22.714Z,63.05
2022-09-16T14:47:54.494Z,63.96
2022-09-16T14:50:28.336Z,62.77
2022-09-16T14:53:01.608Z,62.68
2022-09-16T14:55:36.317Z,62.96
2022-09-16T14:58:04.469Z,63.19
2022-09-16T15:00:44.241Z,62.50
2022-09-16T15:03:25.296Z,62.87
2022-09-16T15:05:55.545Z,63.04
2022-09-16T15:08:29.417Z,62.09
2022-09-16T15:11:19.544Z,61.83
2022-09-16T15:13:58.836Z,61.01
2022-09-16T15:16:28.785Z,59.92
2022-09-16T15:19:04.035Z,59.92
2022-09-16T15:21:38.832Z,59.67
2022-09-16T15:24:28.957Z,59.70
2022-09-16T15:26:58.723Z,59.00
2022-09-16T15:29:35.516Z,59.22
2022-09-16T15:32:27.416Z,59.89
2022-09-16T15:35:14.544Z,59.90
2022-09-16T15:37:42.718Z,60.23
2022-09-16T15:40:19.873Z,60.06
2022-09-16T15:42:49.601Z,59.94
2022-09-16T15:45:22.531Z,60.10
2022-09-16T15:47:57.201Z,59.85
2022-09-16T15:50:29.285Z,59.80
2022-09-16T15:52:57.081Z,59.99
2022-09-16T15:55:42.446Z,60.21
2022-09-16T15:58:43.397Z,60.11
2022-09-16T16:01:17.219Z,60.38
2022-09-16T16:03:45.140Z,60.53
2022-09-16T16:06:13.416Z,60.91
2022-09-16T16:08:50.098Z,60.84
2022-09-16T16:11:20.701Z,61.19
2022-09-16T16:13:50.205Z,61.31
2022-09-16T16:16:19.000Z,61.22
2022-09-16T16:18:47.054Z,60.84
2022-09-16T16:21:16.816Z,61.19
2022-09-16T16:23:45.168Z,60.95
2022-09-16T16:26:13.242Z,61.11
2022-09-16T16:28:41.211Z,61.59
2022-09-16T16:31:14.040Z,61.66
2022-09-16T16:33:44.982Z,62.15
2022-09-16T16:36:19.238Z,62.39
2022-09-16T16:38:48.446Z,62.64
2022-09-16T16:41:23.754Z,62.56
2022-09-16T16:43:51.961Z,62.74
2022-09-16T16:46:19.948Z,62.82
2022-09-16T16:48:47.902Z,62.88
2022-09-16T16:51:15.874Z,62.95
2022-09-16T16:53:48.301Z,62.92
2022-09-16T16:56:16.075Z,63.21
2022-09-16T16:58:44.171Z,63.09
2022-09-16T17:01:16.368Z,62.94
2022-09-16T17:03:46.566Z,63.18
2022-09-16T17:06:14.426Z,63.49
2022-09-16T17:08:42.396Z,63.39
2022-09-16T17:11:14.753Z,63.39
2022-09-16T17:13:45.470Z,63.13
2022-09-16T17:16:16.849Z,63.19
2022-09-16T17:18:45.508Z,63.23
2022-09-16T17:21:23.304Z,63.20
2022-09-16T17:23:51.698Z,63.08
2022-09-16T17:26:21.286Z,63.25
2022-09-16T17:28:50.888Z,63.12
2022-09-16T17:31:22.493Z,62.93
2022-09-16T17:33:54.662Z,63.17
2022-09-16T17:36:24.560Z,63.34
2022-09-16T17:38:57.185Z,63.10
2022-09-16T17:41:28.397Z,62.88
2022-09-16T17:43:58.487Z,62.58
2022-09-16T17:46:27.549Z,62.28
2022-09-16T17:49:02.732Z,62.24
2022-09-16T17:51:32.439Z,62.43
2022-09-16T17:54:01.013Z,62.66
2022-09-16T17:56:29.001Z,62.78
2022-09-16T17:58:56.958Z,62.93
2022-09-16T18:01:26.795Z,63.16
2022-09-16T18:03:56.263Z,63.08
2022-09-16T18:06:28.037Z,62.82
2022-09-16T18:08:55.887Z,62.93
2022-09-16T18:11:24.376Z,63.01
2022-09-16T18:14:01.377Z,63.39
2022-09-16T18:16:30.351Z,63.50
2022-09-16T18:19:00.597Z,63.26
2022-09-16T18:21:30.389Z,62.94
2022-09-16T18:24:02.354Z,62.75
2022-09-16T18:26:31.505Z,62.98
2022-09-16T18:29:10.534Z,62.88
2022-09-16T18:31:48.128Z,62.82
2022-09-16T18:34:17.922Z,63.03
2022-09-16T18:36:45.955Z,63.06
2022-09-16T18:39:16.686Z,62.95
2022-09-16T18:41:45.951Z,62.98
2022-09-16T18:44:17.432Z,63.12
2022-09-16T18:46:46.052Z,63.09
2022-09-16T18:49:16.150Z,63.45
2022-09-16T18:51:51.413Z,63.87
2022-09-16T18:54:28.704Z,65.02
2022-09-16T18:56:59.970Z,65.43
2022-09-16T18:59:31.254Z,65.67
2022-09-16T19:02:02.685Z,65.38
2022-09-16T19:04:32.961Z,65.13
2022-09-16T19:07:08.244Z,64.26
2022-09-16T19:09:39.890Z,62.99
2022-09-16T19:12:12.910Z,62.58
2022-09-16T19:14:41.593Z,63.15
2022-09-16T19:17:12.073Z,62.95
2022-09-16T19:19:39.972Z,63.03
2022-09-16T19:22:07.852Z,64.30
2022-09-16T19:24:37.362Z,64.99
2022-09-16T19:27:05.530Z,65.97
2022-09-16T19:29:33.394Z,66.68
2022-09-16T19:32:01.952Z,65.80
2022-09-16T19:34:30.359Z,66.29
2022-09-16T19:36:58.842Z,67.16
2022-09-16T19:39:27.935Z,67.45
2022-09-16T19:41:55.953Z,67.91
2022-09-16T19:44:24.048Z,68.12
2022-09-16T19:46:53.173Z,69.26
2022-09-16T19:49:23.106Z,70.13
2022-09-16T19:51:55.458Z,70.47
2022-09-16T19:54:24.315Z,71.04
2022-09-16T19:56:52.431Z,71.52
2022-09-16T19:59:20.801Z,71.85
2022-09-16T20:01:49.560Z,71.04
2022-09-16T20:04:20.535Z,70.96
2022-09-16T20:06:49.922Z,71.57
2022-09-16T20:09:19.410Z,71.82
2022-09-16T20:11:48.732Z,72.44
2022-09-16T20:14:21.496Z,72.29
2022-09-16T20:16:52.086Z,72.81
2022-09-16T20:19:21.296Z,72.99
2022-09-16T20:21:49.442Z,73.09
2022-09-16T20:24:20.493Z,73.38
2022-09-16T20:26:52.208Z,73.46
2022-09-16T20:29:20.660Z,73.31
2022-09-16T20:31:50.900Z,73.54
2022-09-16T20:34:19.622Z,73.28
2022-09-16T20:36:47.528Z,73.74
2022-09-16T20:39:16.147Z,74.18
2022-09-16T20:41:45.879Z,73.95
2022-09-16T20:44:15.921Z,73.83
2022-09-16T20:46:44.402Z,74.53
2022-09-16T20:49:16.646Z,75.02
2022-09-16T20:51:45.052Z,75.25
2022-09-16T20:54:14.877Z,75.35
2022-09-16T20:56:46.049Z,76.06
2022-09-16T20:59:16.421Z,76.50
2022-09-16T21:01:45.269Z,76.77
2022-09-16T21:04:15.604Z,76.65
2022-09-16T21:06:44.380Z,76.37
2022-09-16T21:09:15.151Z,76.16
2022-09-16T21:11:45.846Z,76.35
2022-09-16T21:14:16.633Z,75.78
2022-09-16T21:16:47.031Z,75.82
2022-09-16T21:19:16.758Z,75.44
2022-09-16T21:21:47.689Z,76.07
2022-09-16T21:24:17.560Z,76.67
2022-09-16T21:26:46.271Z,76.77
2022-09-16T21:29:18.987Z,76.69
2022-09-16T21:31:48.596Z,76.38
2022-09-16T21:34:19.477Z,76.06
2022-09-16T21:36:48.266Z,75.61
2022-09-16T21:39:18.305Z,75.61
2022-09-16T21:41:48.347Z,75.73
2022-09-16T21:44:17.291Z,76.25
2022-09-16T21:46:46.892Z,76.37
2022-09-16T21:49:25.320Z,77.11
2022-09-16T21:51:58.597Z,76.87
2022-09-16T21:54:28.097Z,77.10
2022-09-16T21:56:56.077Z,77.73
2022-09-16T21:59:24.770Z,78.23
2022-09-16T22:01:53.912Z,78.13
2022-09-16T22:04:24.323Z,77.77
2022-09-16T22:06:54.800Z,77.58
2022-09-16T22:09:23.710Z,77.55
2022-09-16T22:11:52.049Z,78.66
2022-09-16T22:14:19.985Z,78.34
2022-09-16T22:16:48.233Z,78.72
2022-09-16T22:19:18.522Z,78.32
2022-09-16T22:21:48.968Z,78.72
2022-09-16T22:24:20.348Z,79.30
2022-09-16T22:26:51.965Z,80.06
2022-09-16T22:29:20.355Z,80.58
2022-09-16T22:31:48.382Z,80.82
2022-09-16T22:34:16.400Z,80.69
2022-09-16T22:36:44.429Z,80.80
2022-09-16T22:39:18.376Z,80.40
2022-09-16T22:41:46.904Z,80.59
2022-09-16T22:44:15.032Z,81.57
2022-09-16T22:46:45.692Z,82.46
2022-09-16T22:49:14.540Z,82.13
2022-09-16T22:51:43.320Z,82.33
2022-09-16T22:54:13.252Z,82.66
2022-09-16T22:56:42.012Z,82.57
2022-09-16T22:59:16.792Z,83.20
2022-09-16T23:01:45.469Z,83.27
2022-09-16T23:04:13.624Z,83.13
2022-09-16T23:06:42.413Z,83.32
2022-09-16T23:09:12.847Z,82.42
2022-09-16T23:11:40.967Z,82.76
2022-09-16T23:14:14.748Z,82.15
2022-09-16T23:16:42.534Z,82.53
2022-09-16T23:19:11.635Z,82.50
2022-09-16T23:21:40.545Z,82.25
2022-09-16T23:24:16.388Z,82.31
2022-09-16T23:26:45.369Z,82.97
2022-09-16T23:29:14.758Z,83.27
2022-09-16T23:31:44.478Z,81.73
2022-09-16T23:34:19.437Z,81.29
2022-09-16T23:36:48.570Z,81.40
2022-09-16T23:39:17.439Z,81.54
2022-09-16T23:41:47.179Z,81.89
2022-09-16T23:44:16.440Z,84.21
2022-09-16T23:46:44.412Z,84.12
2022-09-16T23:49:12.863Z,84.10
2022-09-16T23:51:40.671Z,83.86
2022-09-16T23:54:08.754Z,83.96
2022-09-16T23:56:37.097Z,83.86
2022-09-16T23:59:05.078Z,83.60
